Time;durP1;ratioP1;P1;durP2;ratioP2;P2;SDS_P1;SDS_P2;PMS_P1;PMS_P2;Temp;Humidity;BMP_temperature;BMP_pressure;BME280_temperature;BME280_humidity;BME280_pressure;Samples;Min_cycle;Max_cycle;Signal;HPM_P1;HPM_P2
2023/02/12 00:02:23;;;;;;;34.93;20.90;;;7.30;99.90;;;;;;5054795;28;20525;-67
2023/02/12 00:04:49;;;;;;;36.53;20.53;;;7.30;99.90;;;;;;5054846;28;20036;-68
2023/02/12 00:07:14;;;;;;;36.57;20.30;;;7.40;99.90;;;;;;5055381;28;20025;-66
2023/02/12 00:09:40;;;;;;;31.90;19.20;;;7.40;99.90;;;;;;5056536;28;20021;-68
2023/02/12 00:12:06;;;;;;;37.77;20.77;;;7.40;99.90;;;;;;5039695;28;20048;-69
2023/02/12 00:14:31;;;;;;;34.33;19.75;;;7.30;99.90;;;;;;5050023;28;20104;-68
2023/02/12 00:16:57;;;;;;;33.53;19.20;;;7.30;99.90;;;;;;5037514;28;20025;-68
2023/02/12 00:19:23;;;;;;;32.73;18.87;;;7.30;99.90;;;;;;5018175;28;20052;-68
2023/02/12 00:21:48;;;;;;;37.35;20.73;;;7.20;99.90;;;;;;5035613;28;20026;-67
2023/02/12 00:24:14;;;;;;;31.43;19.60;;;7.10;99.90;;;;;;5017802;28;20030;-68
2023/02/12 00:26:39;;;;;;;34.30;19.83;;;7.10;99.90;;;;;;5017179;28;20390;-68
2023/02/12 00:29:05;;;;;;;34.80;20.53;;;7.10;99.90;;;;;;5035854;28;20105;-68
2023/02/12 00:31:31;;;;;;;33.70;21.17;;;7.10;99.90;;;;;;5036955;28;20030;-67
2023/02/12 00:33:58;;;;;;;42.58;22.98;;;7.10;99.90;;;;;;5035183;28;20029;-68
2023/02/12 00:36:26;;;;;;;39.85;22.85;;;7.10;99.90;;;;;;5034282;28;20036;-67
2023/02/12 00:38:53;;;;;;;36.08;22.90;;;7.20;99.90;;;;;;5033953;28;20171;-68
2023/02/12 00:41:19;;;;;;;39.15;21.98;;;7.20;99.90;;;;;;5033906;28;20030;-67
2023/02/12 00:43:46;;;;;;;36.15;21.75;;;7.20;99.90;;;;;;5036391;28;20022;-71
2023/02/12 00:46:11;;;;;;;39.65;22.98;;;7.20;99.90;;;;;;5037191;28;20033;-70
2023/02/12 00:48:37;;;;;;;40.90;23.83;;;7.20;99.90;;;;;;5054558;28;20067;-71
2023/02/12 00:51:03;;;;;;;46.50;22.37;;;7.30;99.90;;;;;;5036388;28;20096;-71
2023/02/12 00:53:29;;;;;;;42.90;23.10;;;7.30;99.90;;;;;;5054523;28;20362;-71
2023/02/12 00:55:54;;;;;;;43.20;23.25;;;7.30;99.90;;;;;;5054553;28;20481;-70
2023/02/12 00:58:20;;;;;;;35.20;22.07;;;7.40;99.90;;;;;;5036657;28;20082;-71
2023/02/12 01:00:46;;;;;;;37.47;22.85;;;7.30;99.90;;;;;;5036098;28;20287;-70
2023/02/12 01:03:11;;;;;;;40.70;23.67;;;7.30;99.90;;;;;;5036193;28;20056;-70
2023/02/12 01:05:37;;;;;;;35.53;22.30;;;7.30;99.90;;;;;;5035713;28;20025;-71
2023/02/12 01:08:03;;;;;;;38.80;23.17;;;7.30;99.90;;;;;;5035844;28;20021;-71
2023/02/12 01:10:29;;;;;;;40.22;24.88;;;7.30;99.90;;;;;;5035761;28;20275;-71
2023/02/12 01:12:54;;;;;;;38.70;23.23;;;7.20;99.90;;;;;;5036061;28;20051;-71
2023/02/12 01:15:20;;;;;;;40.03;23.83;;;7.30;99.90;;;;;;5054564;28;20501;-71
2023/02/12 01:17:46;;;;;;;40.20;23.33;;;7.20;99.90;;;;;;5054419;28;20029;-70
2023/02/12 01:20:16;;;;;;;38.07;23.47;;;7.20;99.90;;;;;;5037746;28;20049;-71
2023/02/12 01:22:43;;;;;;;36.80;22.50;;;7.20;99.90;;;;;;5088022;22;20315;-67
2023/02/12 01:25:09;;;;;;;39.00;22.95;;;7.20;99.90;;;;;;5041567;28;20029;-67
2023/02/12 01:27:35;;;;;;;39.55;22.73;;;7.10;99.90;;;;;;5043476;28;20025;-67
2023/02/12 01:30:00;;;;;;;36.63;22.63;;;7.20;99.90;;;;;;5057697;28;20025;-67
2023/02/12 01:32:26;;;;;;;38.47;23.47;;;7.10;99.90;;;;;;5056414;28;20477;-67
2023/02/12 01:34:52;;;;;;;34.13;22.75;;;7.20;99.90;;;;;;5056887;28;20055;-68
2023/02/12 01:37:17;;;;;;;37.17;22.57;;;7.10;99.90;;;;;;5052182;28;20116;-68
2023/02/12 01:39:43;;;;;;;38.50;23.33;;;7.20;99.90;;;;;;5056197;28;20029;-67
2023/02/12 01:42:13;;;;;;;40.43;24.17;;;7.10;99.90;;;;;;5040526;28;20029;-67
2023/02/12 01:45:01;;;;;;;38.97;22.95;;;7.10;99.90;;;;;;5058857;28;20060;-68
2023/02/12 01:47:27;;;;;;;38.38;22.63;;;7.10;99.90;;;;;;5058750;28;20039;-68
2023/02/12 01:49:52;;;;;;;42.73;22.83;;;7.10;99.90;;;;;;5058520;28;20025;-68
2023/02/12 01:52:23;;;;;;;36.33;23.50;;;7.10;99.90;;;;;;5039391;28;20475;-67
2023/02/12 01:54:50;;;;;;;36.47;23.02;;;7.10;99.90;;;;;;5056351;28;20025;-68
2023/02/12 01:57:17;;;;;;;;;;;7.10;99.90;;;;;;5039919;28;20029;-67
2023/02/12 01:59:45;;;;;;;36.92;22.17;;;7.00;99.90;;;;;;5039809;28;19911;-68
2023/02/12 02:02:11;;;;;;;36.40;21.50;;;7.00;99.90;;;;;;5057474;28;20025;-68
2023/02/12 02:04:45;;;;;;;38.00;22.80;;;6.90;99.90;;;;;;5040092;28;20370;-68
2023/02/12 02:07:11;;;;;;;37.92;22.67;;;6.90;99.90;;;;;;5058505;28;20252;-67
2023/02/12 02:09:38;;;;;;;34.53;21.05;;;6.90;99.90;;;;;;5040692;28;20097;-67
2023/02/12 02:14:55;;;;;;;37.42;20.92;;;6.80;99.90;;;;;;5058697;28;20529;-68
2023/02/12 02:17:42;;;;;;;32.08;21.20;;;6.80;99.90;;;;;;5057781;28;20060;-67
2023/02/12 02:20:25;;;;;;;38.53;22.40;;;6.80;99.90;;;;;;5057795;28;20476;-67
2023/02/12 02:23:15;;;;;;;37.15;21.25;;;6.90;99.90;;;;;;5055645;28;20036;-68
2023/02/12 02:26:21;;;;;;;36.63;21.45;;;6.90;99.90;;;;;;5055159;28;20025;-68
2023/02/12 02:29:27;;;;;;;36.60;22.35;;;7.00;99.90;;;;;;5038598;28;20106;-68
2023/02/12 02:32:14;;;;;;;36.60;21.63;;;6.90;99.90;;;;;;5056293;28;20025;-68
2023/02/12 02:34:47;;;;;;;37.97;21.30;;;6.90;99.90;;;;;;5056962;28;20025;-68
2023/02/12 02:37:19;;;;;;;38.80;22.10;;;6.90;99.90;;;;;;5056578;28;20032;-68
2023/02/12 02:39:52;;;;;;;36.53;21.92;;;6.90;99.90;;;;;;5056618;28;20048;-68
2023/02/12 02:42:17;;;;;;;38.63;22.75;;;6.90;99.90;;;;;;5056022;28;20033;-68
2023/02/12 02:44:52;;;;;;;34.83;21.53;;;6.90;99.90;;;;;;5055928;28;20025;-67
2023/02/12 02:47:22;;;;;;;34.28;21.42;;;6.90;99.90;;;;;;5055959;28;20024;-68
2023/02/12 02:49:55;;;;;;;36.95;22.88;;;7.00;99.90;;;;;;5037653;28;20021;-68
2023/02/12 02:52:40;;;;;;;34.08;22.42;;;7.00;99.90;;;;;;5037892;28;20031;-68
2023/02/12 02:55:09;;;;;;;35.28;21.33;;;7.00;99.90;;;;;;5058263;28;20028;-68
2023/02/12 02:57:46;;;;;;;36.85;22.23;;;7.00;99.90;;;;;;5056622;28;20021;-68
2023/02/12 03:00:21;;;;;;;34.20;21.40;;;7.10;99.90;;;;;;5038853;28;20031;-68
2023/02/12 03:02:54;;;;;;;35.95;22.73;;;7.00;99.90;;;;;;5056965;28;20067;-67
2023/02/12 03:05:31;;;;;;;35.90;22.08;;;7.00;99.90;;;;;;5056893;28;20031;-67
2023/02/12 03:08:10;;;;;;;40.42;23.45;;;6.90;99.90;;;;;;5044245;28;20028;-68
2023/02/12 03:10:42;;;;;;;34.58;21.98;;;7.00;99.90;;;;;;5056527;28;20673;-67
2023/02/12 03:13:35;;;;;;;36.55;22.75;;;6.90;99.90;;;;;;5076561;28;20028;-67
2023/02/12 03:16:13;;;;;;;37.92;23.05;;;6.80;99.90;;;;;;5048073;28;20032;-68
2023/02/12 03:18:48;;;;;;;38.47;22.48;;;6.90;99.90;;;;;;5059657;28;20033;-68
2023/02/12 03:21:17;;;;;;;39.25;22.92;;;6.90;99.90;;;;;;5077520;28;20044;-68
2023/02/12 03:23:54;;;;;;;34.53;22.40;;;6.80;99.90;;;;;;5059877;28;20465;-67
2023/02/12 03:26:29;;;;;;;36.55;21.55;;;6.80;99.90;;;;;;5077030;28;20530;-68
2023/02/12 03:28:55;;;;;;;36.47;21.27;;;6.80;99.90;;;;;;5076760;28;20028;-67
2023/02/12 03:31:39;;;;;;;39.60;21.13;;;6.80;99.90;;;;;;5075464;28;20024;-67
2023/02/12 03:34:14;;;;;;;36.10;21.50;;;6.80;99.90;;;;;;5075773;28;20034;-67
2023/02/12 03:36:39;;;;;;;40.40;21.77;;;6.80;99.90;;;;;;5047055;28;20032;-68
2023/02/12 03:39:33;;;;;;;36.07;21.77;;;6.80;99.90;;;;;;5054016;28;20385;-68
2023/02/12 03:42:17;;;;;;;34.25;20.42;;;6.80;99.90;;;;;;5036888;28;20048;-68
2023/02/12 03:45:03;;;;;;;35.45;21.08;;;6.70;99.90;;;;;;5056157;28;20139;-68
2023/02/12 03:47:47;;;;;;;32.70;20.13;;;6.70;99.90;;;;;;5055721;28;20025;-68
2023/02/12 03:50:18;;;;;;;35.13;20.83;;;6.70;99.90;;;;;;5056488;28;20299;-67
2023/02/12 03:52:44;;;;;;;32.20;20.60;;;6.70;99.90;;;;;;5037664;28;20079;-68
2023/02/12 03:55:10;;;;;;;34.95;20.73;;;6.70;99.90;;;;;;5036184;28;20078;-67
2023/02/12 03:57:41;;;;;;;36.55;21.30;;;6.70;99.90;;;;;;5054694;28;20032;-68
2023/02/12 04:00:11;;;;;;;38.50;21.13;;;6.80;99.90;;;;;;5055044;28;20028;-67
2023/02/12 04:02:36;;;;;;;36.33;20.30;;;6.80;99.90;;;;;;5037057;28;20115;-68
2023/02/12 04:05:05;;;;;;;37.47;21.00;;;6.80;99.90;;;;;;5037099;28;20052;-68
2023/02/12 04:07:31;;;;;;;32.90;20.83;;;6.80;99.90;;;;;;5054150;28;20096;-68
2023/02/12 04:09:56;;;;;;;35.20;22.27;;;6.80;99.90;;;;;;5054522;28;20079;-68
2023/02/12 04:12:30;;;;;;;34.93;21.43;;;6.80;99.90;;;;;;5053002;28;20029;-68
2023/02/12 04:15:18;;;;;;;35.88;22.17;;;6.70;99.90;;;;;;5054672;28;20377;-67
2023/02/12 04:18:00;;;;;;;33.72;22.05;;;6.60;99.90;;;;;;5054222;28;20025;-67
2023/02/12 04:20:34;;;;;;;34.90;22.90;;;6.60;99.90;;;;;;5052741;28;20044;-68
2023/02/12 04:23:43;;;;;;;36.17;23.00;;;6.60;99.90;;;;;;5053821;28;20039;-68
2023/02/12 04:26:29;;;;;;;42.03;22.73;;;6.60;99.90;;;;;;5053875;28;20017;-67
2023/02/12 04:29:19;;;;;;;35.13;22.48;;;6.50;99.90;;;;;;5052597;28;20078;-68
2023/02/12 04:31:54;;;;;;;40.78;22.35;;;6.60;99.90;;;;;;5052294;28;20485;-69
2023/02/12 04:34:36;;;;;;;35.47;22.08;;;6.60;99.90;;;;;;5053596;28;20052;-67
2023/02/12 04:37:16;;;;;;;38.58;22.45;;;6.70;99.90;;;;;;5051992;28;20025;-68
2023/02/12 04:39:44;;;;;;;38.42;23.35;;;6.70;99.90;;;;;;5053623;28;20489;-68
2023/02/12 04:42:10;;;;;;;40.50;23.00;;;6.70;99.90;;;;;;5053209;28;20025;-68
2023/02/12 04:44:41;;;;;;;36.40;22.73;;;6.70;99.90;;;;;;5053205;28;20029;-68
2023/02/12 04:47:10;;;;;;;37.67;23.00;;;6.60;99.90;;;;;;5053203;28;20358;-68
2023/02/12 04:49:35;;;;;;;37.92;23.67;;;6.60;99.90;;;;;;5053752;28;20374;-68
2023/02/12 04:52:01;;;;;;;38.47;23.87;;;6.60;99.90;;;;;;5054651;28;20029;-68
2023/02/12 04:54:26;;;;;;;41.37;24.77;;;6.60;99.90;;;;;;5061687;28;20033;-68
2023/02/12 04:56:52;;;;;;;39.20;23.37;;;6.60;99.90;;;;;;5055774;28;20124;-68
2023/02/12 04:59:17;;;;;;;39.47;23.13;;;6.60;99.90;;;;;;5055235;28;20025;-68
2023/02/12 05:01:44;;;;;;;41.33;24.37;;;6.60;99.90;;;;;;5035517;28;20021;-68
2023/02/12 05:04:11;;;;;;;;;;;6.60;99.90;;;;;;5054201;28;20017;-68
2023/02/12 05:06:38;;;;;;;37.40;21.87;;;6.60;99.90;;;;;;5053196;28;20365;-67
2023/02/12 05:09:05;;;;;;;40.22;23.02;;;6.60;99.90;;;;;;5035782;28;20380;-68
2023/02/12 05:11:31;;;;;;;37.60;22.98;;;6.60;99.90;;;;;;5053603;28;20335;-67
2023/02/12 05:13:56;;;;;;;37.70;23.17;;;6.50;99.90;;;;;;5053401;28;20039;-68
2023/02/12 05:16:22;;;;;;;42.07;24.50;;;6.50;99.90;;;;;;5053188;28;20063;-67
2023/02/12 05:18:48;;;;;;;40.37;24.10;;;6.60;99.90;;;;;;5051989;28;20029;-68
2023/02/12 05:21:13;;;;;;;36.95;22.58;;;6.50;99.90;;;;;;5053918;28;20371;-68
2023/02/12 05:23:40;;;;;;;39.70;22.60;;;6.60;99.90;;;;;;5054553;28;20025;-68
2023/02/12 05:26:13;;;;;;;35.55;21.98;;;6.60;99.90;;;;;;5054444;28;20263;-67
2023/02/12 05:28:39;;;;;;;42.88;23.20;;;6.60;99.90;;;;;;5036609;28;20025;-67
2023/02/12 05:31:08;;;;;;;41.70;22.65;;;6.60;99.90;;;;;;5057442;28;20029;-68
2023/02/12 05:33:33;;;;;;;39.28;22.95;;;6.60;99.90;;;;;;5055422;28;20116;-68
2023/02/12 05:36:19;;;;;;;40.13;23.30;;;6.50;99.90;;;;;;5059291;28;20131;-68
2023/02/12 05:38:45;;;;;;;38.40;23.23;;;6.50;99.90;;;;;;5055399;28;20022;-67
2023/02/12 05:41:14;;;;;;;39.13;22.77;;;6.40;99.90;;;;;;5052122;28;20099;-67
2023/02/12 05:43:40;;;;;;;43.53;24.98;;;6.50;99.90;;;;;;5053912;28;20271;-67
2023/02/12 05:46:07;;;;;;;40.00;23.33;;;6.50;99.90;;;;;;5036564;28;20021;-67
2023/02/12 05:48:33;;;;;;;38.88;23.60;;;6.50;99.90;;;;;;5054312;28;20032;-67
2023/02/12 05:51:05;;;;;;;;;;;6.50;99.90;;;;;;5054041;28;20397;-67
2023/02/12 05:53:31;;;;;;;42.55;23.83;;;6.50;99.90;;;;;;5054380;28;19944;-68
2023/02/12 05:56:20;;;;;;;42.50;23.80;;;6.50;99.90;;;;;;5054061;28;20516;-67
2023/02/12 05:58:52;;;;;;;44.13;24.88;;;6.50;99.90;;;;;;5054067;28;20029;-68
2023/02/12 06:01:25;;;;;;;44.30;24.75;;;6.50;99.90;;;;;;5054821;28;20076;-68
2023/02/12 06:03:51;;;;;;;39.13;23.50;;;6.60;99.90;;;;;;5054495;28;20037;-68
2023/02/12 06:06:16;;;;;;;42.50;25.17;;;6.50;99.90;;;;;;5052554;28;20025;-69
2023/02/12 06:08:42;;;;;;;39.70;24.30;;;6.50;99.90;;;;;;5054309;28;20111;-67
2023/02/12 06:11:12;;;;;;;39.77;24.23;;;6.50;99.90;;;;;;5035948;28;20033;-68
2023/02/12 06:13:37;;;;;;;44.13;24.00;;;6.50;99.90;;;;;;5053764;28;20256;-68
2023/02/12 06:16:03;;;;;;;42.30;23.70;;;6.60;99.90;;;;;;5053278;28;20100;-68
2023/02/12 06:18:29;;;;;;;41.80;24.95;;;6.60;99.90;;;;;;5054252;28;20029;-68
2023/02/12 06:20:55;;;;;;;40.30;24.38;;;6.70;99.90;;;;;;5056694;28;20029;-68
2023/02/12 06:23:22;;;;;;;43.17;24.02;;;6.70;99.90;;;;;;5058221;28;20025;-68
2023/02/12 06:25:49;;;;;;;37.63;23.40;;;6.80;99.90;;;;;;5061390;28;20028;-67
2023/02/12 06:28:15;;;;;;;;;;;6.90;99.90;;;;;;5061435;28;20021;-67
2023/02/12 06:30:40;;;;;;;41.20;22.48;;;7.00;99.90;;;;;;5039665;28;19996;-68
2023/02/12 06:33:06;;;;;;;37.97;23.47;;;7.00;99.90;;;;;;5056875;28;20044;-68
2023/02/12 06:35:34;;;;;;;40.50;23.33;;;6.80;99.90;;;;;;5053777;28;20029;-67
2023/02/12 06:38:01;;;;;;;37.17;22.38;;;6.80;99.90;;;;;;5047196;28;20041;-67
2023/02/12 06:40:26;;;;;;;;;;;6.70;99.90;;;;;;5056162;28;20033;-69
2023/02/12 06:42:52;;;;;;;39.25;22.00;;;6.60;99.90;;;;;;5038255;28;20079;-68
2023/02/12 06:45:17;;;;;;;38.80;22.83;;;6.70;99.90;;;;;;5056225;28;20166;-67
2023/02/12 06:47:43;;;;;;;38.53;22.47;;;6.70;99.90;;;;;;5032665;28;20029;-68
2023/02/12 06:50:09;;;;;;;37.63;22.67;;;6.70;99.90;;;;;;5055849;28;20040;-68
2023/02/12 06:52:35;;;;;;;39.15;23.10;;;6.70;99.90;;;;;;5034827;28;20036;-68
2023/02/12 06:55:00;;;;;;;38.53;23.10;;;6.60;99.90;;;;;;5038046;28;20038;-68
2023/02/12 06:57:27;;;;;;;39.23;23.50;;;6.60;99.90;;;;;;5038188;28;20205;-68
2023/02/12 06:59:53;;;;;;;;;;;6.60;99.90;;;;;;5051414;28;20540;-68
2023/02/12 07:02:18;;;;;;;35.30;21.27;;;6.60;99.90;;;;;;5057307;28;19951;-67
2023/02/12 07:04:44;;;;;;;38.43;22.93;;;6.60;99.90;;;;;;5060245;28;20543;-68
2023/02/12 07:07:09;;;;;;;43.17;23.03;;;6.50;99.90;;;;;;5038106;28;20078;-67
2023/02/12 07:09:35;;;;;;;37.53;22.60;;;6.40;99.90;;;;;;5056289;28;20096;-67
2023/02/12 07:12:00;;;;;;;42.30;22.40;;;6.40;99.90;;;;;;5057066;28;20036;-67
2023/02/12 07:14:27;;;;;;;41.90;23.70;;;6.40;99.90;;;;;;5042018;28;20029;-67
2023/02/12 07:16:53;;;;;;;35.63;22.05;;;6.50;99.90;;;;;;5076023;28;20029;-68
2023/02/12 07:19:19;;;;;;;40.47;23.48;;;6.40;99.90;;;;;;5076617;28;20482;-67
2023/02/12 07:21:45;;;;;;;36.33;21.27;;;6.50;99.90;;;;;;5065629;28;20175;-67
2023/02/12 07:24:12;;;;;;;39.37;22.17;;;6.50;99.90;;;;;;5056478;28;20021;-67
2023/02/12 07:26:38;;;;;;;42.25;24.02;;;6.50;99.90;;;;;;5038287;28;20500;-67
2023/02/12 07:29:04;;;;;;;41.03;23.48;;;6.50;99.90;;;;;;5039521;28;20032;-67
2023/02/12 07:31:30;;;;;;;39.97;22.77;;;6.60;99.90;;;;;;5055150;28;20029;-67
2023/02/12 07:33:57;;;;;;;45.10;23.27;;;6.60;99.90;;;;;;5056042;28;20128;-67
2023/02/12 07:36:25;;;;;;;38.05;22.42;;;6.60;99.90;;;;;;5056642;28;20057;-69
2023/02/12 07:38:52;;;;;;;40.92;24.27;;;6.70;99.90;;;;;;5059634;28;20032;-68
2023/02/12 07:41:20;;;;;;;39.40;23.35;;;6.70;99.90;;;;;;5058125;28;20583;-68
2023/02/12 07:43:48;;;;;;;42.25;24.65;;;6.70;99.90;;;;;;5058279;28;20052;-67
2023/02/12 07:46:16;;;;;;;46.08;26.00;;;6.70;99.90;;;;;;5059638;28;20496;-68
2023/02/12 07:48:43;;;;;;;37.30;23.75;;;6.80;99.90;;;;;;5060408;28;20029;-67
2023/02/12 07:51:11;;;;;;;40.55;23.88;;;6.80;99.90;;;;;;5060193;28;20103;-68
2023/02/12 07:53:37;;;;;;;37.92;22.88;;;6.90;99.90;;;;;;5059962;28;20049;-67
2023/02/12 07:56:24;;;;;;;41.38;23.13;;;6.90;99.90;;;;;;5058260;28;20021;-67
2023/02/12 07:58:52;;;;;;;42.85;22.90;;;7.00;99.90;;;;;;5057588;28;20044;-68
2023/02/12 08:01:29;;;;;;;38.83;22.52;;;7.10;99.90;;;;;;5054877;28;20032;-67
2023/02/12 08:04:01;;;;;;;41.42;23.65;;;7.10;99.90;;;;;;5056635;28;20437;-67
2023/02/12 08:06:30;;;;;;;38.88;22.42;;;7.20;99.90;;;;;;5041835;28;20045;-77
2023/02/12 08:08:59;;;;;;;45.17;23.70;;;7.40;99.90;;;;;;5056735;28;20032;-70
2023/02/12 08:11:26;;;;;;;36.53;22.85;;;7.50;99.90;;;;;;5042863;28;20029;-75
2023/02/12 08:13:52;;;;;;;42.53;24.25;;;7.50;99.90;;;;;;5038448;28;20029;-73
2023/02/12 08:16:20;;;;;;;41.67;25.35;;;7.50;99.90;;;;;;5054624;28;20456;-73
2023/02/12 08:18:46;;;;;;;43.92;25.08;;;7.40;99.90;;;;;;5036244;28;20466;-74
2023/02/12 08:21:14;;;;;;;42.05;24.90;;;7.50;99.90;;;;;;5036121;28;20109;-73
2023/02/12 08:23:40;;;;;;;43.15;25.95;;;7.40;99.90;;;;;;5035925;28;20036;-73
2023/02/12 08:26:12;;;;;;;41.30;24.75;;;7.50;99.90;;;;;;5054613;28;20424;-72
2023/02/12 08:28:43;;;;;;;40.50;24.25;;;7.50;99.90;;;;;;5037385;28;20033;-73
2023/02/12 08:31:12;;;;;;;44.70;25.92;;;7.60;99.90;;;;;;5036629;28;20385;-72
2023/02/12 08:33:38;;;;;;;40.78;24.92;;;7.70;99.90;;;;;;5053573;28;20060;-76
2023/02/12 08:36:10;;;;;;;43.37;24.40;;;7.80;99.90;;;;;;5037215;28;20477;-72
2023/02/12 08:38:36;;;;;;;37.60;23.13;;;7.90;99.90;;;;;;5052760;28;20116;-72
2023/02/12 08:41:05;;;;;;;39.42;23.83;;;8.00;99.90;;;;;;5053919;28;20025;-73
2023/02/12 08:43:32;;;;;;;40.90;24.33;;;8.10;99.90;;;;;;5053901;28;20040;-74
2023/02/12 08:46:07;;;;;;;41.95;24.52;;;8.20;99.90;;;;;;5053177;28;20025;-73
2023/02/12 08:48:33;;;;;;;40.13;24.35;;;8.40;99.90;;;;;;5053226;28;20029;-73
2023/02/12 08:51:16;;;;;;;44.20;25.15;;;8.40;99.90;;;;;;5052491;28;20021;-77
2023/02/12 08:53:44;;;;;;;41.28;24.10;;;8.50;99.90;;;;;;5052995;28;20032;-73
2023/02/12 08:56:11;;;;;;;38.60;23.63;;;8.50;99.90;;;;;;5054362;28;20021;-73
2023/02/12 08:58:37;;;;;;;46.15;25.27;;;8.60;99.90;;;;;;5037812;28;20033;-76
2023/02/12 09:01:04;;;;;;;38.00;23.87;;;8.70;99.90;;;;;;5037360;28;20036;-75
2023/02/12 09:03:30;;;;;;;42.03;23.13;;;8.50;99.90;;;;;;5043686;28;20025;-75
2023/02/12 09:05:55;;;;;;;42.97;24.33;;;8.50;99.90;;;;;;5052838;28;20024;-75
2023/02/12 09:08:21;;;;;;;41.27;23.70;;;8.60;99.90;;;;;;5057079;28;20051;-76
2023/02/12 09:10:47;;;;;;;44.10;25.20;;;8.60;99.90;;;;;;5056827;28;20305;-76
2023/02/12 09:13:14;;;;;;;42.13;24.87;;;8.60;99.90;;;;;;5038085;28;20037;-75
2023/02/12 09:15:42;;;;;;;40.88;24.85;;;8.60;99.90;;;;;;5041611;28;20033;-75
2023/02/12 09:18:08;;;;;;;46.35;26.52;;;8.60;99.90;;;;;;5040851;28;20040;-75
2023/02/12 09:20:38;;;;;;;45.30;26.60;;;8.80;99.90;;;;;;5037560;28;20025;-74
2023/02/12 09:23:04;;;;;;;45.72;26.20;;;8.80;99.90;;;;;;5056321;28;20033;-78
2023/02/12 09:25:30;;;;;;;45.85;25.48;;;8.90;99.90;;;;;;5034408;28;20117;-74
2023/02/12 09:27:56;;;;;;;43.58;26.60;;;8.90;99.90;;;;;;5040330;28;20029;-76
2023/02/12 09:30:21;;;;;;;43.37;24.73;;;8.90;99.90;;;;;;5040904;28;20029;-68
2023/02/12 09:32:47;;;;;;;39.95;24.00;;;9.00;99.90;;;;;;5053110;28;20035;-72
2023/02/12 09:35:13;;;;;;;38.97;23.70;;;9.00;99.90;;;;;;5053158;28;20082;-70
2023/02/12 09:37:39;;;;;;;40.73;25.33;;;9.00;99.90;;;;;;5052906;28;20032;-69
2023/02/12 09:40:06;;;;;;;40.30;23.85;;;9.00;99.90;;;;;;5053246;28;20029;-70
2023/02/12 09:42:54;;;;;;;41.08;25.02;;;9.00;99.90;;;;;;5034938;28;20028;-69
2023/02/12 09:45:23;;;;;;;;;;;9.00;99.90;;;;;;5053351;28;20045;-69
2023/02/12 09:48:27;;;;;;;45.13;25.42;;;9.00;99.90;;;;;;5053749;28;19905;-69
2023/02/12 09:50:58;;;;;;;42.78;25.50;;;9.00;99.90;;;;;;5020959;28;20076;-68
2023/02/12 09:53:28;;;;;;;44.78;25.45;;;9.10;99.90;;;;;;5054311;28;20036;-68
2023/02/12 09:55:55;;;;;;;43.90;26.42;;;9.20;99.90;;;;;;5057423;28;20116;-69
2023/02/12 09:58:35;;;;;;;40.63;23.85;;;9.30;99.90;;;;;;5057181;28;20025;-69
2023/02/12 10:01:11;;;;;;;38.90;25.45;;;9.40;99.90;;;;;;5039323;28;20477;-69
2023/02/12 10:03:36;;;;;;;41.97;24.70;;;9.50;99.90;;;;;;5039875;28;20096;-69
2023/02/12 10:06:06;;;;;;;36.80;22.37;;;9.50;99.90;;;;;;5056555;28;20056;-69
2023/02/12 10:08:46;;;;;;;37.00;22.92;;;9.40;99.90;;;;;;5056156;28;20473;-69
2023/02/12 10:11:21;;;;;;;37.55;23.02;;;9.40;99.90;;;;;;5052315;28;20103;-69
2023/02/12 10:14:19;;;;;;;34.85;22.30;;;9.40;99.90;;;;;;5055196;28;20486;-69
2023/02/12 10:16:59;;;;;;;36.38;22.58;;;9.40;99.90;;;;;;5051160;28;20051;-69
2023/02/12 10:20:14;;;;;;;35.75;21.27;;;9.30;99.90;;;;;;5034706;28;20030;-69
2023/02/12 10:22:51;;;;;;;35.03;19.95;;;9.40;99.90;;;;;;5034615;28;20036;-69
2023/02/12 10:25:43;;;;;;;35.13;19.15;;;9.40;99.90;;;;;;5036136;28;20017;-69
2023/02/12 10:28:34;;;;;;;32.40;19.02;;;9.40;99.90;;;;;;5018489;28;20116;-74
2023/02/12 10:31:04;;;;;;;31.10;19.52;;;9.40;99.90;;;;;;5018466;28;20037;-72
2023/02/12 10:33:47;;;;;;;29.65;18.30;;;9.50;99.90;;;;;;5019004;28;20367;-72
2023/02/12 10:36:35;;;;;;;30.88;19.13;;;9.80;99.90;;;;;;5018727;28;20083;-68
2023/02/12 10:39:14;;;;;;;29.35;18.20;;;9.90;99.90;;;;;;5036228;28;20497;-76
2023/02/12 10:41:51;;;;;;;30.52;18.02;;;9.90;99.90;;;;;;5021329;28;20033;-68
2023/02/12 10:44:16;;;;;;;;;;;9.90;99.90;;;;;;5054119;28;20112;-67
2023/02/12 10:46:42;;;;;;;20.90;13.43;;;9.80;99.90;;;;;;5039095;28;19948;-72
2023/02/12 10:49:12;;;;;;;26.13;15.33;;;9.80;99.90;;;;;;5056581;28;20465;-71
2023/02/12 10:52:08;;;;;;;26.10;16.48;;;9.80;99.90;;;;;;5053515;28;20033;-61
2023/02/12 10:54:43;;;;;;;24.95;16.58;;;9.80;99.90;;;;;;5056006;28;20067;-61
2023/02/12 10:57:25;;;;;;;27.60;16.42;;;9.70;99.90;;;;;;5056168;28;20036;-63
2023/02/12 10:59:53;;;;;;;29.27;17.92;;;9.80;99.90;;;;;;5056801;28;20033;-64
2023/02/12 11:02:26;;;;;;;28.13;16.60;;;9.80;99.90;;;;;;5054988;28;20025;-63
2023/02/12 11:04:53;;;;;;;28.63;18.13;;;9.70;99.90;;;;;;5054155;28;20116;-62
2023/02/12 11:07:20;;;;;;;26.13;16.45;;;9.80;99.90;;;;;;5056950;28;20029;-63
2023/02/12 11:09:48;;;;;;;28.40;17.45;;;9.90;99.90;;;;;;5055226;28;20440;-62
2023/02/12 11:12:29;;;;;;;23.02;16.25;;;10.00;99.90;;;;;;5056907;28;20025;-67
2023/02/12 11:15:06;;;;;;;23.92;15.65;;;10.20;99.90;;;;;;5058574;28;20040;-73
2023/02/12 11:17:36;;;;;;;25.80;15.63;;;10.40;99.90;;;;;;5061360;28;20025;-72
2023/02/12 11:20:24;;;;;;;22.50;15.60;;;10.40;99.90;;;;;;5062848;28;20021;-73
2023/02/12 11:22:57;;;;;;;25.90;16.13;;;10.30;99.90;;;;;;5055308;28;20040;-65
2023/02/12 11:25:27;;;;;;;27.52;16.15;;;10.40;99.90;;;;;;5053586;28;20048;-66
2023/02/12 11:28:29;;;;;;;25.30;16.88;;;10.40;99.90;;;;;;5036983;28;20037;-66
2023/02/12 11:31:02;;;;;;;27.55;17.25;;;10.40;99.90;;;;;;4993616;28;20078;-71
2023/02/12 11:33:34;;;;;;;26.35;16.67;;;10.00;99.90;;;;;;4994774;28;20030;-73
2023/02/12 11:36:23;;;;;;;26.67;16.45;;;10.00;99.90;;;;;;4977940;28;20031;-73
2023/02/12 11:38:56;;;;;;;27.98;17.35;;;10.00;99.90;;;;;;4977681;28;20033;-74
2023/02/12 11:41:35;;;;;;;26.83;17.02;;;10.00;99.90;;;;;;4977917;28;20030;-67
2023/02/12 11:44:19;;;;;;;26.27;15.80;;;10.00;99.90;;;;;;4970301;28;20444;-66
2023/02/12 11:46:50;;;;;;;21.75;14.68;;;10.10;99.90;;;;;;4956837;29;20051;-71
2023/02/12 11:49:24;;;;;;;22.55;15.00;;;10.10;99.90;;;;;;4955796;29;20067;-67
2023/02/12 11:51:50;;;;;;;25.65;15.32;;;10.10;99.90;;;;;;4970560;28;20125;-73
2023/02/12 11:54:25;;;;;;;23.63;15.25;;;10.10;99.90;;;;;;4974603;28;20428;-74
2023/02/12 11:56:51;;;;;;;24.80;15.13;;;10.00;99.90;;;;;;4991466;28;20176;-77
2023/02/12 11:59:28;;;;;;;24.55;16.02;;;10.00;99.90;;;;;;4977843;28;20133;-73
2023/02/12 12:01:58;;;;;;;26.20;15.38;;;10.00;99.90;;;;;;4994186;28;20038;-74
2023/02/12 12:04:26;;;;;;;26.15;15.13;;;9.90;99.90;;;;;;4978728;28;20149;-68
2023/02/12 12:07:01;;;;;;;28.90;16.17;;;9.90;99.90;;;;;;4982501;28;20037;-68
2023/02/12 12:09:36;;;;;;;22.70;14.38;;;9.90;99.90;;;;;;5034374;28;20437;-68
2023/02/12 12:12:22;;;;;;;17.70;10.90;;;9.90;99.90;;;;;;5034845;28;20548;-67
2023/02/12 12:21:02;;;;;;;15.15;9.52;;;10.20;99.90;;;;;;5034316;28;20129;-67
2023/02/12 12:23:40;;;;;;;12.18;7.78;;;10.40;99.90;;;;;;5016734;28;20033;-69
2023/02/12 12:26:14;;;;;;;12.45;8.25;;;10.60;99.90;;;;;;5050761;28;20031;-67
2023/02/12 12:29:04;;;;;;;14.27;8.55;;;10.60;99.90;;;;;;5054279;28;20067;-68
2023/02/12 12:31:44;;;;;;;14.18;8.15;;;10.80;99.90;;;;;;5054456;28;20032;-67
2023/02/12 12:34:22;;;;;;;11.63;7.85;;;10.90;99.90;;;;;;5036339;28;20021;-67
2023/02/12 12:37:23;;;;;;;17.27;8.93;;;11.00;99.90;;;;;;5036053;28;20120;-68
2023/02/12 12:40:06;;;;;;;11.93;7.97;;;11.10;99.90;;;;;;5054014;28;20211;-68
2023/02/12 12:42:38;;;;;;;13.45;8.68;;;11.10;99.90;;;;;;5053434;28;20489;-68
2023/02/12 12:45:22;;;;;;;11.50;8.10;;;11.10;99.90;;;;;;5043014;28;20108;-67
2023/02/12 12:48:03;;;;;;;12.32;7.75;;;11.10;99.90;;;;;;5033790;28;20068;-68
2023/02/12 12:50:47;;;;;;;12.30;8.30;;;10.90;99.90;;;;;;5035187;28;20171;-67
2023/02/12 12:53:45;;;;;;;10.57;7.00;;;10.70;99.90;;;;;;5036736;28;20048;-65
2023/02/12 12:56:14;;;;;;;;;;;10.60;99.90;;;;;;5011834;28;20049;-66
2023/02/12 12:59:06;;;;;;;12.77;7.43;;;10.60;99.90;;;;;;5033956;28;19958;-68
2023/02/12 13:02:00;;;;;;;14.13;8.48;;;10.70;99.90;;;;;;5034403;28;20025;-67
2023/02/12 13:04:41;;;;;;;13.57;7.93;;;10.80;99.90;;;;;;5035538;28;20028;-67
2023/02/12 13:07:34;;;;;;;14.68;7.85;;;10.80;99.90;;;;;;5049325;28;20039;-68
2023/02/12 13:10:27;;;;;;;16.15;8.48;;;10.90;99.90;;;;;;5055152;28;20017;-68
2023/02/12 13:13:12;;;;;;;15.20;8.77;;;10.80;99.90;;;;;;5054084;28;20511;-67